Airfield :
LOGIN :

Register | Disclaimer

   EN    FR    IT 

 










Legend :    VFR   Marginal VFR   IFR   Intensive IFR   Very Intensive IFR
Visi :
Ceiling :
>= 8 km
>= 3000ft
5 to 8 km
1000 to 3000 ft
1500m to 5 km
500 to 1000 ft
800 to 1500m
200 to 500 ft
< 800m
< 200 ft
Symbols :   Thunderstorms  Fog  Heavy snow  Heavy precipitations  Wind > 20 kt
SIGMETs :     Misc.  Thunderstorms  Icing  Turbulence  Mountain Waves  Volcanic Ashes







- Airport Elevation : 194 ft
- IATA code : ANE
- Download approach charts


LFJR - Angers Marcé

CURRENT METAR :
  • 182100Z AUTO 26004KT 230V290 0450 0400 R26/0450N FG VV/// 04/04 Q1026

EXPIRED METARs :
  • 182030Z AUTO 27003KT 230V310 0450 0400 R26/0500N FG VV/// 04/04 Q1026
  • 182000Z AUTO VRB02KT 0500 R26/0500D FG VV/// 04/04 Q1026
  • 181930Z AUTO VRB03KT 0600 R26/0700D FG VV/// 04/04 Q1026
  • 181900Z AUTO VRB03KT 0450 0400 R26/0450N FG VV/// 05/05 Q1026 BECMG 5000 NSW BKN005
  • 181830Z AUTO 24004KT 210V280 0400 0350 R26/0400N FG VV/// 05/05 Q1026 BECMG 5000 NSW BKN005

TAF TAF LFJR
Valid from the 18 at 15:00 until the 19 at 00:00 UTC


181400Z 1815/1824 VRB02KT 0600 FG VV///
BECMG 1815/1816 5000 NSW BKN005
TEMPO 1816/1820 SCT010
No reported NOTAMs for that airfield.



MET'MAP, your aeronautical weather chart ! - Copyright ORBIFLY December 2007 - Disclaimer

ORBIFLY MET'MAP TEAM :

Programming & Development : Alexandra Zaïnal
Concept & Development : Baudouin d'Aumeries
Co-Development & Prog : Marc-Olivier Méhu
Technical & hardware support : Manuel Goepfert

Contact : metmap@orbifly.com




SOURCES & CREDITS :

   NOAA